Time;durP1;ratioP1;P1;durP2;ratioP2;P2;SDS_P1;SDS_P2;PMS_P1;PMS_P2;Temp;Humidity;BMP_temperature;BMP_pressure;BME280_temperature;BME280_humidity;BME280_pressure;Samples;Min_cycle;Max_cycle;Signal;HPM_P1;HPM_P2
2023/10/27 00:30:13;;;;;;;;;;;;;;;;;;;;;
2023/10/27 08:10:57;;;;;;;1.30;1.03;;;11.50;99.90;;;;;;4975629;28;20437;-84
2023/10/27 08:41:04;;;;;;;0.70;0.70;;;12.00;99.90;;;;;;4877374;29;20622;-84
2023/10/27 08:47:00;;;;;;;0.97;0.80;;;12.00;99.90;;;;;;5027166;28;20490;-79
2023/10/27 08:50:03;;;;;;;1.30;1.20;;;12.00;99.90;;;;;;5053969;28;20443;-82
2023/10/27 08:53:48;;;;;;;;;;;;;;;;;;;;;
2023/10/27 08:56:34;;;;;;;0.70;0.70;;;11.90;99.90;;;;;;4966324;28;20435;-82
2023/10/27 08:59:10;;;;;;;1.40;1.03;;;11.90;99.90;;;;;;4963283;29;20538;-83
2023/10/27 09:02:34;;;;;;;0.80;0.80;;;12.00;99.90;;;;;;4977373;28;20449;-82
2023/10/27 09:09:22;;;;;;;1.77;0.90;;;11.90;99.90;;;;;;4959521;28;20876;-80
2023/10/27 09:16:09;;;;;;;1.27;0.90;;;11.90;99.90;;;;;;4978835;28;20499;-82
2023/10/27 09:36:34;;;;;;;2.93;1.03;;;11.90;99.90;;;;;;4990225;28;20441;-82
2023/10/27 10:02:30;;;;;;;0.90;0.87;;;11.80;99.90;;;;;;4948066;28;20441;-82
2023/10/27 10:05:30;;;;;;;;;;;;;;;;;;;;;
2023/10/27 10:09:03;;;;;;;1.10;1.10;;;11.80;99.90;;;;;;5043710;22;20974;-80
2023/10/27 10:21:11;;;;;;;1.20;1.10;;;12.00;99.90;;;;;;5001427;28;20498;-84
2023/10/27 10:24:29;;;;;;;1.53;1.10;;;12.00;99.90;;;;;;5077060;28;20452;-83
2023/10/27 10:27:30;;;;;;;;;;;;;;;;;;;;;
2023/10/27 11:36:25;;;;;;;1.37;1.27;;;16.50;99.90;;;;;;5058757;28;20481;-79
2023/10/27 11:39:01;;;;;;;2.33;0.83;;;16.60;99.90;;;;;;5041947;28;20438;-80
2023/10/27 11:41:39;;;;;;;2.57;1.10;;;16.40;99.90;;;;;;5041921;28;20442;-83
2023/10/27 11:44:19;;;;;;;1.90;1.20;;;16.40;99.90;;;;;;5037862;28;20446;-81
2023/10/27 11:47:02;;;;;;;1.90;1.37;;;16.50;99.90;;;;;;5038626;28;20540;-80
2023/10/27 11:49:38;;;;;;;2.17;0.87;;;16.30;99.90;;;;;;5039344;28;20431;-79
2023/10/27 11:52:20;;;;;;;1.23;1.00;;;16.30;99.90;;;;;;5039917;28;20522;-79
2023/10/27 11:54:56;;;;;;;2.30;1.73;;;16.50;99.90;;;;;;5037956;28;20481;-82
2023/10/27 11:57:36;;;;;;;2.80;1.30;;;16.90;99.90;;;;;;5039835;28;20474;-80
2023/10/27 12:00:10;;;;;;;2.40;1.13;;;16.90;99.90;;;;;;5037573;28;20477;-82
2023/10/27 12:02:53;;;;;;;2.63;1.20;;;16.20;99.90;;;;;;5041969;28;20485;-85
2023/10/27 12:05:25;;;;;;;1.20;1.10;;;16.10;99.90;;;;;;5041933;28;20461;-84
2023/10/27 12:08:03;;;;;;;2.23;1.10;;;16.20;99.90;;;;;;5043780;28;20466;-81
2023/10/27 12:10:34;;;;;;;1.20;1.00;;;16.50;99.90;;;;;;5043712;28;20458;-83
2023/10/27 12:13:09;;;;;;;1.33;1.03;;;16.80;99.90;;;;;;5042453;28;20455;-81
2023/10/27 12:15:49;;;;;;;1.77;1.07;;;17.20;99.90;;;;;;5042480;28;20453;-81
2023/10/27 12:18:39;;;;;;;2.00;1.03;;;17.50;99.90;;;;;;5041370;28;20467;-82
2023/10/27 12:21:20;;;;;;;3.50;1.23;;;17.80;99.90;;;;;;5040028;28;20527;-82
2023/10/27 12:23:58;;;;;;;1.80;0.90;;;17.90;99.90;;;;;;5042579;28;20882;-79
2023/10/27 12:27:09;;;;;;;1.27;0.90;;;18.00;99.90;;;;;;5037544;28;20470;-82
2023/10/27 12:30:19;;;;;;;1.27;1.00;;;17.60;99.90;;;;;;5038334;28;20518;-81
2023/10/27 12:32:57;;;;;;;1.37;0.83;;;17.20;99.90;;;;;;5041634;28;20521;-82
2023/10/27 12:35:41;;;;;;;2.10;1.10;;;17.10;99.90;;;;;;5041582;28;20458;-84
2023/10/27 12:38:31;;;;;;;2.00;0.70;;;17.10;99.90;;;;;;5038221;28;20520;-80
2023/10/27 12:41:12;;;;;;;2.47;0.73;;;16.90;99.90;;;;;;5036962;28;20497;-81
2023/10/27 12:47:27;;;;;;;1.90;0.93;;;16.70;99.90;;;;;;5033322;28;20517;-81
2023/10/27 12:50:01;;;;;;;0.87;0.70;;;17.00;99.90;;;;;;5039288;28;20454;-80
2023/10/27 12:52:48;;;;;;;1.30;0.80;;;17.20;99.90;;;;;;5039677;28;20454;-81
2023/10/27 12:55:37;;;;;;;1.20;1.10;;;17.50;99.90;;;;;;5039631;28;20474;-80
2023/10/27 12:58:35;;;;;;;1.33;0.90;;;17.60;99.90;;;;;;5039326;28;20466;-79
2023/10/27 13:01:23;;;;;;;2.10;0.90;;;17.50;99.90;;;;;;5042170;28;20469;-82
2023/10/27 13:04:18;;;;;;;1.17;0.60;;;17.70;99.90;;;;;;5039501;28;20443;-81
2023/10/27 13:07:09;;;;;;;1.10;1.00;;;17.70;99.90;;;;;;5042961;28;20494;-82
2023/10/27 13:12:43;;;;;;;5.40;0.83;;;17.80;99.90;;;;;;5037470;28;20516;-83
2023/10/27 13:15:27;;;;;;;1.67;1.57;;;17.80;99.90;;;;;;5036810;28;20438;-82
2023/10/27 13:18:15;;;;;;;73.67;51.33;;;18.20;99.90;;;;;;5041195;28;20593;-82
2023/10/27 13:21:10;;;;;;;1.87;0.83;;;18.60;99.90;;;;;;5045808;28;20484;-83
2023/10/27 13:24:03;;;;;;;1.47;1.37;;;17.90;99.90;;;;;;5046565;28;21015;-79
2023/10/27 13:30:17;;;;;;;1.37;1.27;;;18.10;99.90;;;;;;5029277;28;20431;-80
2023/10/27 13:35:55;;;;;;;2.00;1.00;;;18.30;99.90;;;;;;5043249;28;20489;-80
2023/10/27 13:38:44;;;;;;;1.43;0.80;;;18.30;99.90;;;;;;5049767;28;20488;-80
2023/10/27 13:44:50;;;;;;;1.10;1.00;;;17.80;99.90;;;;;;5047523;28;20452;-81
2023/10/27 13:51:00;;;;;;;3.10;1.40;;;17.90;99.90;;;;;;5036673;28;20542;-80
2023/10/27 13:53:57;;;;;;;;;;;;;;;;;;;;;
2023/10/27 13:56:48;;;;;;;2.20;0.90;;;17.30;99.90;;;;;;5049197;28;20445;-82
2023/10/27 14:03:22;;;;;;;1.60;0.80;;;17.20;99.90;;;;;;4965057;29;20454;-81
2023/10/27 14:06:34;;;;;;;;;;;;;;;;;;;;;
2023/10/27 14:12:18;;;;;;;1.50;1.17;;;16.40;99.90;;;;;;5023323;28;20482;-82
2023/10/27 14:15:15;;;;;;;4.70;3.30;;;16.40;99.90;;;;;;5028550;28;20443;-84
2023/10/27 14:20:58;;;;;;;1.73;1.60;;;16.50;99.90;;;;;;5011395;28;20437;-82
2023/10/27 14:24:03;;;;;;;2.00;1.90;;;16.50;99.90;;;;;;5034417;28;20477;-81
2023/10/27 14:27:05;;;;;;;2.30;1.73;;;16.40;99.90;;;;;;5031328;28;20459;-82
2023/10/27 14:30:06;;;;;;;1.60;1.30;;;16.10;99.90;;;;;;5024630;28;20523;-81
2023/10/27 14:39:51;;;;;;;;;;;;;;;;;;;;;
2023/10/27 14:42:47;;;;;;;6.70;1.07;;;15.60;99.90;;;;;;5025535;28;20450;-84
2023/10/27 14:45:43;;;;;;;2.60;2.40;;;15.40;99.90;;;;;;5024747;28;20503;-79
2023/10/27 14:52:16;;;;;;;;;;;;;;;;;;;;;
2023/10/27 14:55:08;;;;;;;1.43;1.33;;;15.20;99.90;;;;;;5022796;28;20463;-81
2023/10/27 14:57:51;;;;;;;1.90;1.60;;;15.00;99.90;;;;;;5008622;28;20491;-83
2023/10/27 15:04:04;;;;;;;0.80;0.80;;;14.90;99.90;;;;;;5014602;28;20510;-82
2023/10/27 15:07:26;;;;;;;;;;;;;;;;;;;;;
2023/10/27 15:10:31;;;;;;;1.20;1.10;;;14.80;99.90;;;;;;5045194;28;20810;-82
2023/10/27 15:16:55;;;;;;;1.53;1.00;;;14.70;99.90;;;;;;5038305;28;20450;-80
2023/10/27 15:19:40;;;;;;;;;;;;;;;;;;;;;
2023/10/27 15:26:23;;;;;;;1.40;0.90;;;14.50;99.90;;;;;;5035253;28;20481;-82
2023/10/27 15:29:50;;;;;;;1.30;1.10;;;14.40;99.90;;;;;;5043759;28;20451;-81
2023/10/27 15:32:43;;;;;;;1.10;1.00;;;14.40;99.90;;;;;;5038457;28;20447;-79
2023/10/27 15:38:53;;;;;;;0.70;0.70;;;14.30;99.90;;;;;;5041000;28;20826;-81
2023/10/27 15:41:40;;;;;;;1.77;0.87;;;14.10;99.90;;;;;;5044235;28;20462;-83
2023/10/27 15:44:27;;;;;;;1.47;0.90;;;14.10;99.90;;;;;;5045396;28;20461;-82
2023/10/27 15:47:09;;;;;;;1.93;1.13;;;14.10;99.90;;;;;;5051478;28;20485;-81
2023/10/27 15:52:47;;;;;;;1.10;1.10;;;14.00;99.90;;;;;;5053378;28;20446;-79
2023/10/27 16:02:00;;;;;;;1.47;1.10;;;13.90;99.90;;;;;;5046526;28;20434;-80
2023/10/27 16:05:10;;;;;;;1.10;1.00;;;13.90;99.90;;;;;;5029060;28;20459;-80
2023/10/27 16:08:05;;;;;;;1.40;1.30;;;13.80;99.90;;;;;;5005836;28;20491;-79
2023/10/27 16:10:57;;;;;;;1.97;1.37;;;13.80;99.90;;;;;;5025224;28;20527;-80
2023/10/27 16:13:33;;;;;;;2.30;1.47;;;13.70;99.90;;;;;;5022932;28;20455;-82
2023/10/27 16:16:38;;;;;;;1.47;1.30;;;13.70;99.90;;;;;;5026164;28;20506;-82
2023/10/27 16:19:26;;;;;;;1.70;1.60;;;13.70;99.90;;;;;;5015393;28;20477;-81
2023/10/27 16:22:22;;;;;;;3.77;1.60;;;13.60;99.90;;;;;;5026744;28;20452;-84
2023/10/27 16:25:41;;;;;;;4.47;4.17;;;13.60;99.90;;;;;;5023015;28;20455;-84
2023/10/27 16:28:29;;;;;;;4.83;2.97;;;13.30;99.90;;;;;;5026954;28;20545;-80
2023/10/27 16:34:46;;;;;;;4.17;3.77;;;13.50;99.90;;;;;;5021040;28;20439;-82
2023/10/27 16:38:08;;;;;;;13.27;10.97;;;13.50;99.90;;;;;;4994070;28;20506;-82
2023/10/27 16:41:04;;;;;;;7.70;6.30;;;13.30;99.90;;;;;;5019755;28;20482;-82
2023/10/27 16:43:54;;;;;;;15.40;11.10;;;13.30;99.90;;;;;;5024046;28;20509;-82
2023/10/27 16:46:40;;;;;;;11.90;10.50;;;13.30;99.90;;;;;;5019219;28;20546;-82
2023/10/27 16:56:24;;;;;;;3.97;3.53;;;13.20;99.90;;;;;;5015020;28;20827;-82
2023/10/27 16:59:07;;;;;;;2.40;2.20;;;13.00;99.90;;;;;;5017222;28;20451;-81
2023/10/27 17:01:54;;;;;;;2.13;2.00;;;13.00;99.90;;;;;;5018390;28;20459;-80
2023/10/27 17:04:46;;;;;;;1.80;1.70;;;12.90;99.90;;;;;;5035294;28;20453;-81
2023/10/27 17:14:31;;;;;;;2.23;2.07;;;12.80;99.90;;;;;;4950153;28;20551;-84
2023/10/27 17:17:16;;;;;;;3.80;2.93;;;12.70;99.90;;;;;;5046964;28;20554;-80
2023/10/27 17:26:07;;;;;;;3.00;2.00;;;12.60;99.90;;;;;;5027009;28;20450;-81
2023/10/27 17:32:17;;;;;;;2.07;1.87;;;12.40;99.90;;;;;;5009728;28;20461;-81
2023/10/27 17:35:32;;;;;;;2.80;2.43;;;12.10;99.90;;;;;;5039863;28;20771;-82
2023/10/27 17:38:59;;;;;;;2.57;1.90;;;12.10;99.90;;;;;;5039079;28;20505;-81
2023/10/27 17:44:37;;;;;;;3.47;2.00;;;12.20;99.90;;;;;;5040131;28;20546;-79
2023/10/27 17:50:44;;;;;;;3.13;2.93;;;12.20;99.90;;;;;;5047181;28;20452;-82
2023/10/27 17:53:38;;;;;;;1.70;1.60;;;12.10;99.90;;;;;;5047794;28;20435;-82
2023/10/27 17:56:15;;;;;;;4.13;2.23;;;12.10;99.90;;;;;;5048186;28;20500;-82
2023/10/27 18:02:19;;;;;;;2.90;2.10;;;12.10;99.90;;;;;;5045384;28;20431;-83
2023/10/27 18:05:02;;;;;;;3.27;3.00;;;12.10;99.90;;;;;;5046477;28;20450;-81
2023/10/27 18:11:09;;;;;;;4.00;3.13;;;12.00;99.90;;;;;;5034247;28;20462;-84
2023/10/27 18:20:42;;;;;;;;;;;;;;;;;;;;;
2023/10/27 18:23:37;;;;;;;3.23;3.03;;;11.90;99.90;;;;;;5010451;28;20563;-82
2023/10/27 18:29:43;;;;;;;2.70;2.50;;;11.90;99.90;;;;;;5020632;28;20569;-78
2023/10/27 18:32:27;;;;;;;2.90;2.70;;;11.80;99.90;;;;;;5044282;28;20454;-83
2023/10/27 18:35:18;;;;;;;2.60;2.40;;;11.70;99.90;;;;;;5044586;28;20924;-81
2023/10/27 18:38:26;;;;;;;5.90;2.80;;;11.70;99.90;;;;;;5042952;28;20509;-83
2023/10/27 18:41:40;;;;;;;2.60;2.40;;;11.70;99.90;;;;;;5042397;28;20469;-83
2023/10/27 18:44:44;;;;;;;;;;;;;;;;;;;;;
2023/10/27 18:47:29;;;;;;;2.60;2.40;;;11.70;99.90;;;;;;5040866;28;20470;-80
2023/10/27 18:50:44;;;;;;;3.03;2.10;;;11.40;99.90;;;;;;5043741;28;20450;-80
2023/10/27 18:53:52;;;;;;;3.67;2.30;;;11.60;99.90;;;;;;5043605;28;20449;-79
2023/10/27 18:59:39;;;;;;;6.53;5.30;;;11.60;99.90;;;;;;5026581;28;20474;-80
2023/10/27 19:02:30;;;;;;;3.33;2.60;;;11.60;99.90;;;;;;5042454;28;20466;-80
2023/10/27 19:05:18;;;;;;;4.63;2.77;;;11.60;99.90;;;;;;5042303;28;20457;-83
2023/10/27 19:08:12;;;;;;;4.80;2.97;;;11.60;99.90;;;;;;5042147;28;20482;-80
2023/10/27 19:11:02;;;;;;;;;;;;;;;;;;;;;
2023/10/27 19:13:51;;;;;;;3.50;3.20;;;11.80;99.90;;;;;;5041857;28;20446;-83
2023/10/27 19:16:48;;;;;;;3.47;2.47;;;11.50;99.90;;;;;;5040621;28;20455;-80
2023/10/27 19:22:53;;;;;;;2.90;2.70;;;11.50;99.90;;;;;;5039438;28;20482;-82
2023/10/27 19:25:59;;;;;;;;;;;;;;;;;;;;;
2023/10/27 19:28:41;;;;;;;4.20;2.47;;;11.50;99.90;;;;;;5034978;28;20488;-79
2023/10/27 19:31:30;;;;;;;3.47;2.50;;;11.50;99.90;;;;;;5037482;28;20561;-84
2023/10/27 19:34:42;;;;;;;3.80;2.77;;;11.50;99.90;;;;;;5038123;28;20505;-79
2023/10/27 19:37:32;;;;;;;5.00;2.63;;;11.50;99.90;;;;;;5039944;28;20567;-83
2023/10/27 19:43:42;;;;;;;4.83;3.30;;;11.50;99.90;;;;;;5039392;28;20529;-81
2023/10/27 19:46:18;;;;;;;2.37;2.27;;;11.70;99.90;;;;;;5038988;28;20450;-81
2023/10/27 19:49:22;;;;;;;3.10;2.80;;;11.50;99.90;;;;;;5038914;28;20478;-82
2023/10/27 19:52:25;;;;;;;3.47;2.83;;;11.50;99.90;;;;;;5039405;28;20481;-81
2023/10/27 19:55:10;;;;;;;4.00;2.97;;;11.50;99.90;;;;;;5039527;28;20553;-83
2023/10/27 19:57:51;;;;;;;3.13;2.83;;;11.50;99.90;;;;;;5041004;28;20871;-84
2023/10/27 20:00:51;;;;;;;4.87;3.20;;;11.50;99.90;;;;;;5040547;28;20450;-80
2023/10/27 20:06:20;;;;;;;4.50;2.70;;;11.50;99.90;;;;;;5042814;28;20457;-84
2023/10/27 20:09:22;;;;;;;6.00;2.80;;;11.50;99.90;;;;;;5043524;28;20489;-81
2023/10/27 20:12:09;;;;;;;;;;;;;;;;;;;;;
2023/10/27 20:15:08;;;;;;;8.97;3.30;;;11.50;99.90;;;;;;5047670;28;20444;-83
2023/10/27 20:18:17;;;;;;;4.87;3.03;;;11.50;99.90;;;;;;5045876;28;20565;-82
2023/10/27 20:21:20;;;;;;;4.67;2.60;;;11.50;99.90;;;;;;5047495;28;20537;-83
2023/10/27 20:24:22;;;;;;;3.63;2.40;;;11.50;99.90;;;;;;5049353;28;20450;-80
2023/10/27 20:27:45;;;;;;;3.57;2.90;;;11.50;99.90;;;;;;5041742;28;20510;-80
2023/10/27 20:31:04;;;;;;;;;;;;;;;;;;;;;
2023/10/27 20:33:56;;;;;;;5.47;2.40;;;11.60;99.90;;;;;;5042889;28;20442;-79
2023/10/27 20:37:17;;;;;;;;;;;;;;;;;;;;;
2023/10/27 20:43:11;;;;;;;3.20;2.07;;;11.50;99.90;;;;;;5044449;28;20477;-80
2023/10/27 20:46:15;;;;;;;5.37;2.43;;;11.60;99.90;;;;;;5045513;28;20459;-82
2023/10/27 20:52:03;;;;;;;3.03;2.40;;;11.60;99.90;;;;;;5032807;28;20529;-82
2023/10/27 20:54:39;;;;;;;2.33;2.10;;;11.60;99.90;;;;;;5043286;28;20457;-83
2023/10/27 20:57:30;;;;;;;3.43;2.60;;;11.60;99.90;;;;;;5044580;28;20709;-82
2023/10/27 21:00:32;;;;;;;5.63;2.50;;;11.60;99.90;;;;;;5044485;28;20442;-81
2023/10/27 21:03:19;;;;;;;1.80;1.70;;;11.60;99.90;;;;;;5039829;28;20455;-81
2023/10/27 21:05:56;;;;;;;9.70;2.43;;;11.60;99.90;;;;;;5026330;28;20454;-83
2023/10/27 21:08:34;;;;;;;3.90;2.43;;;11.60;99.90;;;;;;5026808;28;20475;-80
2023/10/27 21:11:14;;;;;;;2.50;2.30;;;11.60;99.90;;;;;;5025427;28;20497;-83
2023/10/27 21:13:55;;;;;;;3.23;2.20;;;11.60;99.90;;;;;;5024048;28;20454;-82
2023/10/27 21:16:27;;;;;;;2.73;2.43;;;11.30;99.90;;;;;;5025964;28;20906;-82
2023/10/27 21:19:20;;;;;;;;;;;;;;;;;;;;;
2023/10/27 21:22:07;;;;;;;5.07;2.70;;;11.60;99.90;;;;;;5024782;28;20430;-82
2023/10/27 21:24:41;;;;;;;4.20;3.20;;;11.50;99.90;;;;;;5025090;28;20478;-82
2023/10/27 21:28:03;;;;;;;;;;;;;;;;;;;;;
2023/10/27 21:31:03;;;;;;;3.97;2.57;;;11.50;99.90;;;;;;5024376;28;20434;-82
2023/10/27 21:33:41;;;;;;;3.03;2.13;;;11.70;99.90;;;;;;5022790;28;20451;-81
2023/10/27 21:39:20;;;;;;;2.97;2.67;;;11.50;99.90;;;;;;5039096;28;20442;-83
2023/10/27 21:41:57;;;;;;;4.97;2.43;;;11.50;99.90;;;;;;5039682;28;20609;-82
2023/10/27 21:44:57;;;;;;;;;;;;;;;;;;;;;
2023/10/27 21:48:07;;;;;;;3.07;2.50;;;11.50;99.90;;;;;;5040085;28;20455;-83
2023/10/27 21:51:08;;;;;;;2.83;2.57;;;11.60;99.90;;;;;;5036432;28;20442;-83
2023/10/27 21:54:08;;;;;;;3.50;2.40;;;11.30;99.90;;;;;;5041184;28;20474;-80
2023/10/27 21:57:31;;;;;;;3.20;2.00;;;11.60;99.90;;;;;;5041416;28;20446;-82
2023/10/27 22:04:18;;;;;;;3.30;2.17;;;11.50;99.90;;;;;;4993942;28;20464;-81
2023/10/27 22:07:29;;;;;;;6.93;2.80;;;11.50;99.90;;;;;;4982863;28;20508;-80
2023/10/27 22:13:11;;;;;;;4.50;2.67;;;11.40;99.90;;;;;;4962034;28;20429;-80
2023/10/27 22:16:04;;;;;;;5.13;1.60;;;11.30;99.90;;;;;;4982852;28;20456;-80
2023/10/27 22:22:09;;;;;;;2.70;1.90;;;11.20;99.90;;;;;;5040372;28;20499;-81
2023/10/27 22:34:47;;;;;;;1.47;1.30;;;11.20;99.90;;;;;;5037033;28;20447;-81
2023/10/27 22:37:48;;;;;;;1.40;1.30;;;11.20;99.90;;;;;;5045399;28;20448;-82
2023/10/27 22:40:35;;;;;;;2.83;1.73;;;11.10;99.90;;;;;;5044602;28;20446;-82
2023/10/27 22:43:30;;;;;;;2.03;1.67;;;11.10;99.90;;;;;;5047154;28;20449;-81
2023/10/27 22:49:07;;;;;;;3.23;1.60;;;11.10;99.90;;;;;;5046565;28;20485;-83
2023/10/27 22:52:27;;;;;;;;;;;;;;;;;;;;;
2023/10/27 22:58:38;;;;;;;1.70;1.20;;;10.80;99.90;;;;;;5034720;28;20462;-83
2023/10/27 23:01:36;;;;;;;1.53;1.43;;;11.30;99.90;;;;;;5049595;28;20438;-80
2023/10/27 23:04:42;;;;;;;3.33;1.97;;;11.20;99.90;;;;;;5044701;28;20469;-79
2023/10/27 23:13:47;;;;;;;0.97;0.97;;;11.00;99.90;;;;;;5049885;28;20450;-79
2023/10/27 23:16:51;;;;;;;1.20;1.20;;;11.00;99.90;;;;;;5053088;28;20451;-80
2023/10/27 23:19:31;;;;;;;1.30;1.20;;;11.00;99.90;;;;;;4932961;29;20499;-81
2023/10/27 23:22:46;;;;;;;;;;;;;;;;;;;;;
2023/10/27 23:29:11;;;;;;;1.10;1.10;;;11.00;99.90;;;;;;5034693;28;20457;-79
2023/10/27 23:31:52;;;;;;;0.93;0.93;;;11.00;99.90;;;;;;5038371;28;20454;-80
2023/10/27 23:34:49;;;;;;;1.40;1.30;;;10.90;99.90;;;;;;5037778;28;20478;-82
2023/10/27 23:37:43;;;;;;;0.90;0.90;;;10.90;99.90;;;;;;5036970;28;20532;-82
2023/10/27 23:40:47;;;;;;;1.00;0.90;;;10.90;99.90;;;;;;5038116;28;20447;-82
2023/10/27 23:43:44;;;;;;;2.50;1.20;;;10.90;99.90;;;;;;5037625;28;20461;-81
2023/10/27 23:46:33;;;;;;;1.17;0.80;;;10.90;99.90;;;;;;5038360;28;20450;-80
2023/10/27 23:49:15;;;;;;;1.70;1.00;;;10.90;99.90;;;;;;5041503;28;20470;-82
2023/10/27 23:55:10;;;;;;;1.47;1.10;;;10.90;99.90;;;;;;5038245;28;20453;-82
2023/10/27 23:57:45;;;;;;;3.47;1.20;;;10.90;99.90;;;;;;5039959;28;20462;-80
